createdAt,value
2022-12-17T00:02:41.749Z,101787.50
2022-12-17T00:05:27.115Z,101796.53
2022-12-17T00:08:15.623Z,101794.03
2022-12-17T00:11:00.320Z,101809.16
2022-12-17T00:13:45.658Z,101809.78
2022-12-17T00:16:30.905Z,101814.25
2022-12-17T00:19:15.906Z,101816.72
2022-12-17T00:22:00.695Z,101817.59
2022-12-17T00:24:45.443Z,101818.66
2022-12-17T00:27:30.558Z,101821.47
2022-12-17T00:30:15.303Z,101827.69
2022-12-17T00:33:00.458Z,101820.41
2022-12-17T00:35:45.601Z,101839.22
2022-12-17T00:38:34.655Z,101841.53
2022-12-17T00:41:19.412Z,101841.38
2022-12-17T00:44:04.512Z,101840.06
2022-12-17T00:46:49.636Z,101849.28
2022-12-17T00:49:34.563Z,101840.00
2022-12-17T00:52:22.716Z,101850.53
2022-12-17T00:55:07.948Z,101849.31
2022-12-17T00:57:52.926Z,101853.66
2022-12-17T01:00:38.184Z,101851.66
2022-12-17T01:03:28.814Z,101854.84
2022-12-17T01:06:14.771Z,101856.66
2022-12-17T01:08:59.925Z,101871.00
2022-12-17T01:11:45.124Z,101867.34
2022-12-17T01:14:30.008Z,101865.38
2022-12-17T01:17:14.795Z,101869.19
2022-12-17T01:19:59.670Z,101873.66
2022-12-17T01:22:44.526Z,101879.59
2022-12-17T01:25:29.530Z,101886.94
2022-12-17T01:28:14.886Z,101886.19
2022-12-17T01:31:02.263Z,101895.22
2022-12-17T01:33:46.994Z,101890.50
2022-12-17T01:36:31.792Z,101892.00
2022-12-17T01:39:16.540Z,101889.94
2022-12-17T01:42:01.401Z,101900.09
2022-12-17T01:45:01.829Z,101898.13
2022-12-17T01:47:48.955Z,101902.91
2022-12-17T01:50:35.603Z,101899.53
2022-12-17T01:53:22.111Z,101900.09
2022-12-17T01:56:10.092Z,101900.66
2022-12-17T01:58:55.067Z,101906.66
2022-12-17T02:01:40.613Z,101898.00
2022-12-17T02:04:28.310Z,101897.06
2022-12-17T02:07:29.002Z,101895.28
2022-12-17T02:10:23.674Z,101896.69
2022-12-17T02:13:11.569Z,101897.25
2022-12-17T02:16:01.783Z,101896.59
2022-12-17T02:19:06.788Z,101898.75
2022-12-17T02:21:53.162Z,101895.13
2022-12-17T02:24:38.268Z,101895.13
2022-12-17T02:27:24.657Z,101899.03
2022-12-17T02:30:12.508Z,101896.88
2022-12-17T02:33:01.956Z,101896.22
2022-12-17T02:35:49.731Z,101887.97
2022-12-17T02:38:36.070Z,101898.13
2022-12-17T02:41:23.432Z,101894.50
2022-12-17T02:44:09.233Z,101888.25
2022-12-17T02:46:55.099Z,101890.34
2022-12-17T02:49:40.317Z,101900.59
2022-12-17T02:52:29.478Z,101905.69
2022-12-17T02:55:16.866Z,101907.16
2022-12-17T02:58:01.579Z,101914.47
2022-12-17T03:00:47.372Z,101909.31
2022-12-17T03:03:35.614Z,101913.72
2022-12-17T03:06:21.242Z,101919.72
2022-12-17T03:09:06.505Z,101913.19
2022-12-17T03:11:51.752Z,101922.22
2022-12-17T03:14:36.909Z,101928.44
2022-12-17T03:17:22.267Z,101931.06
2022-12-17T03:20:07.471Z,101930.31
2022-12-17T03:22:52.253Z,101933.72
2022-12-17T03:25:37.372Z,101931.38
2022-12-17T03:28:23.174Z,101929.69
2022-12-17T03:31:08.117Z,101935.97
2022-12-17T03:33:53.046Z,101940.72
2022-12-17T03:36:38.449Z,101936.03
2022-12-17T03:39:23.287Z,101938.25
2022-12-17T03:42:08.240Z,101935.72
2022-12-17T03:44:53.015Z,101939.56
2022-12-17T03:47:37.781Z,101934.41
2022-12-17T03:50:23.238Z,101937.34
2022-12-17T03:53:08.381Z,101934.31
2022-12-17T03:55:53.331Z,101933.84
2022-12-17T03:58:38.217Z,101939.44
2022-12-17T04:01:23.155Z,101941.41
2022-12-17T04:04:08.281Z,101942.13
2022-12-17T04:06:53.142Z,101948.34
2022-12-17T04:09:38.242Z,101952.50
2022-12-17T04:12:23.000Z,101946.00
2022-12-17T04:15:07.820Z,101938.59
2022-12-17T04:17:52.552Z,101943.63
2022-12-17T04:20:37.404Z,101946.66
2022-12-17T04:23:22.415Z,101941.75
2022-12-17T04:26:07.142Z,101946.97
2022-12-17T04:28:52.132Z,101952.94
2022-12-17T04:31:37.097Z,101954.75
2022-12-17T04:34:21.809Z,101956.19
2022-12-17T04:37:06.766Z,101961.44
2022-12-17T04:39:51.773Z,101961.81
2022-12-17T04:42:37.087Z,101959.13
2022-12-17T04:45:35.583Z,101961.56
2022-12-17T04:48:41.296Z,101958.38
2022-12-17T04:51:25.925Z,101961.06
2022-12-17T04:54:11.076Z,101969.59
2022-12-17T04:56:59.527Z,101967.34
2022-12-17T04:59:44.899Z,101963.94
2022-12-17T05:02:29.800Z,101967.28
2022-12-17T05:05:14.828Z,101971.69
2022-12-17T05:07:59.886Z,101971.22
2022-12-17T05:10:44.903Z,101967.28
2022-12-17T05:13:30.088Z,101967.19
2022-12-17T05:16:15.646Z,101966.97
2022-12-17T05:19:00.803Z,101974.47
2022-12-17T05:21:45.577Z,101982.06
2022-12-17T05:24:30.202Z,101979.66
2022-12-17T05:27:15.092Z,101982.91
2022-12-17T05:29:59.966Z,101994.09
2022-12-17T05:32:44.846Z,101995.22
2022-12-17T05:35:29.806Z,101996.88
2022-12-17T05:38:20.938Z,101987.91
2022-12-17T05:41:06.024Z,101990.16
2022-12-17T05:43:50.929Z,101989.16
2022-12-17T05:46:35.833Z,101873.72
2022-12-17T05:49:20.991Z,101996.25
2022-12-17T05:52:05.789Z,102000.75
2022-12-17T05:54:51.035Z,101991.69
2022-12-17T05:57:35.816Z,101993.00
2022-12-17T06:00:20.592Z,102000.72
2022-12-17T06:03:05.605Z,101998.22
2022-12-17T06:05:50.660Z,102000.63
2022-12-17T06:08:35.641Z,102013.00
2022-12-17T06:11:20.382Z,102009.88
2022-12-17T06:14:05.708Z,102020.22
2022-12-17T06:16:50.536Z,102022.47
2022-12-17T06:19:35.469Z,102025.53
2022-12-17T06:22:20.611Z,102020.81
2022-12-17T06:25:05.615Z,102022.00
2022-12-17T06:27:50.397Z,102021.41
2022-12-17T06:30:35.480Z,102025.97
2022-12-17T06:33:27.593Z,102030.84
2022-12-17T06:36:19.901Z,102038.16
2022-12-17T06:39:06.901Z,102036.69
2022-12-17T06:41:51.614Z,102028.69
2022-12-17T06:44:37.699Z,102029.22
2022-12-17T06:47:22.946Z,102033.63
2022-12-17T06:50:07.872Z,102032.19
2022-12-17T06:52:52.722Z,102037.13
2022-12-17T06:55:37.788Z,102044.56
2022-12-17T06:58:39.326Z,102035.47
2022-12-17T07:01:44.738Z,102048.50
2022-12-17T07:04:29.874Z,102040.84
2022-12-17T07:07:17.585Z,102055.91
2022-12-17T07:10:03.374Z,102046.66
2022-12-17T07:12:48.161Z,102062.31
2022-12-17T07:15:33.048Z,102059.69
2022-12-17T07:18:19.536Z,102063.34
2022-12-17T07:21:05.156Z,102063.44
2022-12-17T07:23:50.497Z,102068.81
2022-12-17T07:26:35.866Z,102077.47
2022-12-17T07:29:20.949Z,102078.38
2022-12-17T07:32:06.061Z,102088.50
2022-12-17T07:34:51.155Z,102092.38
2022-12-17T07:37:36.220Z,102095.28
2022-12-17T07:40:21.354Z,102102.25
2022-12-17T07:43:06.624Z,102096.25
2022-12-17T07:45:51.329Z,102101.81
2022-12-17T07:48:36.783Z,102104.09
2022-12-17T07:51:21.491Z,102098.66
2022-12-17T07:54:06.433Z,102096.09
2022-12-17T07:56:51.114Z,102108.88
2022-12-17T07:59:36.045Z,102106.81
2022-12-17T08:02:21.333Z,102110.00
2022-12-17T08:05:06.565Z,102112.69
2022-12-17T08:07:51.645Z,102118.28
2022-12-17T08:10:37.119Z,102118.44
2022-12-17T08:13:23.222Z,102125.13
2022-12-17T08:16:10.666Z,102129.09
2022-12-17T08:18:55.933Z,102131.13
2022-12-17T08:21:41.338Z,102129.56
2022-12-17T08:24:26.338Z,102139.09
2022-12-17T08:27:11.316Z,102139.84
2022-12-17T08:29:56.204Z,102139.31
2022-12-17T08:32:42.473Z,102136.47
2022-12-17T08:35:27.387Z,102152.84
2022-12-17T08:38:12.310Z,102153.63
2022-12-17T08:40:57.462Z,102145.03
2022-12-17T08:43:42.390Z,102158.19
2022-12-17T08:46:27.144Z,102153.19
2022-12-17T08:49:11.989Z,102154.75
2022-12-17T08:51:56.648Z,102159.25
2022-12-17T08:54:41.652Z,102165.38
2022-12-17T08:57:31.877Z,102167.16
2022-12-17T09:00:17.605Z,102166.78
2022-12-17T09:03:03.048Z,102167.56
2022-12-17T09:05:48.176Z,102176.44
2022-12-17T09:08:33.584Z,102168.16
2022-12-17T09:11:18.799Z,102165.69
2022-12-17T09:14:03.800Z,102171.41
2022-12-17T09:16:50.241Z,102172.47
2022-12-17T09:19:35.526Z,102173.06
2022-12-17T09:22:20.731Z,102173.22
2022-12-17T09:25:06.065Z,102171.53
2022-12-17T09:27:51.971Z,102167.47
2022-12-17T09:30:36.984Z,102181.59
2022-12-17T09:33:21.853Z,102178.06
2022-12-17T09:36:06.857Z,102175.69
2022-12-17T09:38:51.498Z,102176.97
2022-12-17T09:41:40.317Z,102170.19
2022-12-17T09:44:32.111Z,102169.81
2022-12-17T09:47:16.989Z,102163.31
2022-12-17T09:50:01.937Z,102167.03
2022-12-17T09:52:58.098Z,102164.81
2022-12-17T09:55:48.386Z,102170.47
2022-12-17T09:58:43.849Z,102176.28
2022-12-17T10:01:35.343Z,102175.19
2022-12-17T10:04:24.155Z,102178.41
2022-12-17T10:07:09.377Z,102178.34
2022-12-17T10:10:09.022Z,102187.34
2022-12-17T10:12:53.820Z,102174.53
2022-12-17T10:15:38.610Z,102184.13
2022-12-17T10:18:29.478Z,102187.91
2022-12-17T10:21:19.700Z,102194.38
2022-12-17T10:24:04.688Z,102195.63
2022-12-17T10:26:50.905Z,102192.09
2022-12-17T10:32:43.345Z,102182.78
2022-12-17T10:35:46.769Z,102187.91
2022-12-17T10:38:42.458Z,102191.78
2022-12-17T10:41:43.858Z,102185.97
2022-12-17T10:44:39.447Z,102191.09
2022-12-17T10:47:30.868Z,102192.16
2022-12-17T10:50:20.578Z,102195.53
2022-12-17T10:53:06.601Z,102197.69
2022-12-17T10:55:52.603Z,102198.25
2022-12-17T10:58:40.413Z,102194.25
2022-12-17T11:01:28.720Z,102188.72
2022-12-17T11:04:14.732Z,102182.56
2022-12-17T11:07:04.353Z,102190.31
2022-12-17T11:10:09.471Z,102191.84
2022-12-17T11:13:00.846Z,102193.50
2022-12-17T11:15:56.687Z,102199.69
2022-12-17T11:19:09.360Z,102190.97
2022-12-17T11:22:02.502Z,102193.47
2022-12-17T11:24:59.068Z,102189.16
2022-12-17T11:27:46.144Z,102190.00
2022-12-17T11:30:38.560Z,102181.81
2022-12-17T11:33:35.198Z,102188.44
2022-12-17T11:36:35.156Z,102187.09
2022-12-17T11:39:44.865Z,102187.03
2022-12-17T11:42:51.376Z,102181.66
2022-12-17T11:46:11.751Z,102179.84
2022-12-17T11:49:19.638Z,102189.91
2022-12-17T11:52:10.894Z,102188.69
2022-12-17T11:55:11.136Z,102191.31
2022-12-17T11:58:05.958Z,102186.97
2022-12-17T12:01:14.249Z,102184.44
2022-12-17T12:04:02.130Z,102185.34
2022-12-17T12:06:53.188Z,102188.84
2022-12-17T12:09:51.774Z,102179.69
2022-12-17T12:12:54.971Z,102187.88
2022-12-17T12:15:44.227Z,102188.25
2022-12-17T12:18:34.140Z,102189.25
2022-12-17T12:21:22.356Z,102192.75
2022-12-17T12:24:10.315Z,102193.16
2022-12-17T12:27:10.506Z,102190.94
2022-12-17T12:29:58.386Z,102188.00
2022-12-17T12:32:54.730Z,102187.34
2022-12-17T12:35:41.636Z,102190.69
2022-12-17T12:38:34.338Z,102191.66
2022-12-17T12:41:29.563Z,102202.59
2022-12-17T12:44:18.515Z,102198.88
2022-12-17T12:47:11.410Z,102201.44
2022-12-17T12:50:01.643Z,102204.59
2022-12-17T12:52:47.059Z,102197.19
2022-12-17T12:55:31.943Z,102200.78
2022-12-17T12:58:17.214Z,102199.59
2022-12-17T13:01:02.391Z,102191.66
2022-12-17T13:03:51.726Z,102201.50
2022-12-17T13:06:36.784Z,102204.91
2022-12-17T13:09:23.736Z,102211.25
2022-12-17T13:11:54.427Z,102209.88
2022-12-17T13:14:28.370Z,102213.16
2022-12-17T13:16:56.442Z,102218.56
2022-12-17T13:19:31.962Z,102202.91
2022-12-17T13:22:23.367Z,102202.50
2022-12-17T13:24:51.479Z,102213.25
2022-12-17T13:27:35.853Z,102211.22
2022-12-17T13:30:31.442Z,102210.44
2022-12-17T13:32:57.687Z,102203.59
2022-12-17T13:35:34.785Z,102211.06
2022-12-17T13:38:21.247Z,102219.41
2022-12-17T13:41:06.696Z,102208.31
2022-12-17T13:43:44.774Z,102207.34
2022-12-17T13:46:18.612Z,102206.97
2022-12-17T13:48:51.788Z,102216.25
2022-12-17T13:51:19.334Z,102212.44
2022-12-17T13:53:53.458Z,102219.22
2022-12-17T13:56:39.029Z,102211.78
2022-12-17T13:59:09.562Z,102224.91
2022-12-17T14:01:44.621Z,102225.56
2022-12-17T14:04:19.309Z,102227.47
2022-12-17T14:06:45.983Z,102224.59
2022-12-17T14:09:20.116Z,102230.09
2022-12-17T14:12:05.729Z,102239.75
2022-12-17T14:14:33.970Z,102244.19
2022-12-17T14:17:01.432Z,102234.41
2022-12-17T14:19:32.123Z,102245.81
2022-12-17T14:21:59.422Z,102249.50
2022-12-17T14:24:29.431Z,102236.53
2022-12-17T14:26:58.536Z,102244.94
2022-12-17T14:29:26.594Z,102248.28
2022-12-17T14:31:54.664Z,102249.44
2022-12-17T14:34:21.391Z,102248.97
2022-12-17T14:36:53.355Z,102252.22
2022-12-17T14:39:25.596Z,102250.09
2022-12-17T14:45:00.646Z,102256.94
2022-12-17T14:47:31.292Z,102258.91
2022-12-17T14:50:05.199Z,102253.69
2022-12-17T14:52:37.516Z,102255.09
2022-12-17T14:55:23.805Z,102260.22
2022-12-17T14:57:53.828Z,102250.53
2022-12-17T15:00:20.542Z,102255.06
2022-12-17T15:02:51.569Z,102266.25
2022-12-17T15:05:18.278Z,102263.28
2022-12-17T15:07:44.777Z,102266.88
2022-12-17T15:10:12.704Z,102261.75
2022-12-17T15:12:40.746Z,102261.31
2022-12-17T15:15:07.482Z,102261.13
2022-12-17T15:17:34.403Z,102261.69
2022-12-17T15:20:00.904Z,102273.03
2022-12-17T15:22:27.482Z,102271.41
2022-12-17T15:24:53.998Z,102269.81
2022-12-17T15:27:21.994Z,102273.47
2022-12-17T15:29:49.874Z,102283.38
2022-12-17T15:32:20.521Z,102275.16
2022-12-17T15:34:47.023Z,102279.22
2022-12-17T15:37:13.909Z,102278.72
2022-12-17T15:39:40.685Z,102277.28
2022-12-17T15:42:26.195Z,102284.50
2022-12-17T15:44:52.654Z,102286.00
2022-12-17T15:47:19.008Z,102288.41
2022-12-17T15:49:45.537Z,102279.94
2022-12-17T15:52:16.481Z,102289.94
2022-12-17T15:54:44.377Z,102289.09
2022-12-17T15:57:18.270Z,102288.75
2022-12-17T15:59:53.326Z,102295.41
2022-12-17T16:02:20.135Z,102298.09
2022-12-17T16:04:46.789Z,102292.06
2022-12-17T16:07:13.367Z,102290.53
2022-12-17T16:09:40.576Z,102299.41
2022-12-17T16:12:07.266Z,102301.06
2022-12-17T16:14:33.897Z,102304.69
2022-12-17T16:17:11.227Z,102314.28
2022-12-17T16:19:37.807Z,102302.69
2022-12-17T16:22:05.255Z,102302.75
2022-12-17T16:24:32.911Z,102307.66
2022-12-17T16:27:04.281Z,102312.84
2022-12-17T16:29:32.211Z,102315.91
2022-12-17T16:32:00.029Z,102317.66
2022-12-17T16:34:26.560Z,102310.94
2022-12-17T16:36:53.464Z,102317.84
2022-12-17T16:39:21.169Z,102314.00
2022-12-17T16:41:47.600Z,102313.63
2022-12-17T16:44:16.212Z,102320.03
2022-12-17T16:46:43.532Z,102323.81
2022-12-17T16:49:12.868Z,102317.84
2022-12-17T16:51:40.761Z,102333.00
2022-12-17T16:54:18.815Z,102326.63
2022-12-17T16:56:46.093Z,102324.66
2022-12-17T16:59:13.626Z,102321.59
2022-12-17T17:01:47.191Z,102323.94
2022-12-17T17:04:14.755Z,102318.78
2022-12-17T17:06:54.189Z,102324.47
2022-12-17T17:09:37.652Z,102316.56
2022-12-17T17:12:04.456Z,102324.78
2022-12-17T17:14:32.129Z,102330.16
2022-12-17T17:16:58.751Z,102321.31
2022-12-17T17:19:25.262Z,102328.41
2022-12-17T17:21:57.939Z,102335.78
2022-12-17T17:24:29.847Z,102337.41
2022-12-17T17:26:58.971Z,102349.47
2022-12-17T17:29:28.865Z,102347.78
2022-12-17T17:32:14.234Z,102351.16
2022-12-17T17:34:44.707Z,102349.03
2022-12-17T17:37:12.992Z,102344.38
2022-12-17T17:39:41.903Z,102347.50
2022-12-17T17:42:09.362Z,102344.69
2022-12-17T17:44:36.734Z,102351.38
2022-12-17T17:47:03.762Z,102357.66
2022-12-17T17:49:30.972Z,102356.63
2022-12-17T17:52:15.633Z,102360.84
2022-12-17T17:54:44.431Z,102374.16
2022-12-17T17:57:14.068Z,102373.00
2022-12-17T17:59:54.260Z,102382.88
2022-12-17T18:02:24.488Z,102373.72
2022-12-17T18:04:53.945Z,102373.03
2022-12-17T18:07:25.950Z,102375.41
2022-12-17T18:09:58.540Z,102379.44
2022-12-17T18:12:46.180Z,102378.66
2022-12-17T18:15:18.014Z,102385.03
2022-12-17T18:17:51.468Z,102391.59
2022-12-17T18:20:21.549Z,102385.41
2022-12-17T18:22:52.166Z,102391.69
2022-12-17T18:25:23.949Z,102388.00
2022-12-17T18:27:57.655Z,102390.16
2022-12-17T18:30:27.001Z,102392.44
2022-12-17T18:32:55.376Z,102390.78
2022-12-17T18:35:23.589Z,102390.41
2022-12-17T18:37:53.925Z,102398.50
2022-12-17T18:40:21.670Z,102399.53
2022-12-17T18:43:07.106Z,102397.19
2022-12-17T18:45:39.110Z,102399.59
2022-12-17T18:48:06.638Z,102414.00
2022-12-17T18:50:36.003Z,102409.81
2022-12-17T18:53:03.311Z,102418.41
2022-12-17T18:55:33.754Z,102415.38
2022-12-17T18:58:02.758Z,102418.19
2022-12-17T19:00:35.764Z,102417.09
2022-12-17T19:03:07.565Z,102422.38
2022-12-17T19:05:47.235Z,102434.59
2022-12-17T19:08:19.268Z,102437.06
2022-12-17T19:10:47.653Z,102427.63
2022-12-17T19:13:14.898Z,102427.31
2022-12-17T19:15:41.742Z,102434.59
2022-12-17T19:18:10.150Z,102436.28
2022-12-17T19:20:37.189Z,102436.53
2022-12-17T19:23:05.238Z,102437.53
2022-12-17T19:25:33.608Z,102443.19
2022-12-17T19:28:00.472Z,102443.97
2022-12-17T19:30:28.648Z,102445.38
2022-12-17T19:32:55.968Z,102453.84
2022-12-17T19:35:22.554Z,102464.16
2022-12-17T19:37:50.071Z,102466.16
2022-12-17T19:40:17.981Z,102469.28
2022-12-17T19:42:44.871Z,102468.75
2022-12-17T19:45:12.969Z,102464.19
2022-12-17T19:47:41.097Z,102466.03
2022-12-17T19:50:08.537Z,102460.69
2022-12-17T19:52:35.721Z,102464.91
2022-12-17T19:55:03.458Z,102465.91
2022-12-17T19:57:30.627Z,102471.69
2022-12-17T19:59:57.710Z,102463.63
2022-12-17T20:02:32.313Z,102467.75
2022-12-17T20:05:01.059Z,102461.66
2022-12-17T20:07:34.682Z,102464.81
2022-12-17T20:10:04.348Z,102468.63
2022-12-17T20:12:43.871Z,102470.13
2022-12-17T20:15:10.993Z,102464.06
2022-12-17T20:17:38.917Z,102460.50
2022-12-17T20:20:06.817Z,102464.34
2022-12-17T20:22:34.274Z,102479.00
2022-12-17T20:25:05.338Z,102475.75
2022-12-17T20:27:35.406Z,102470.69
2022-12-17T20:30:09.236Z,102472.44
2022-12-17T20:32:36.044Z,102467.34
2022-12-17T20:35:03.488Z,102465.78
2022-12-17T20:37:32.221Z,102469.19
2022-12-17T20:39:58.625Z,102476.56
2022-12-17T20:42:24.985Z,102475.53
2022-12-17T20:44:53.538Z,102480.22
2022-12-17T20:47:20.287Z,102482.97
2022-12-17T20:49:47.020Z,102487.94
2022-12-17T20:52:13.393Z,102483.25
2022-12-17T20:54:39.889Z,102490.09
2022-12-17T20:57:06.542Z,102493.34
2022-12-17T20:59:33.038Z,102496.38
2022-12-17T21:01:59.534Z,102489.06
2022-12-17T21:04:26.025Z,102484.59
2022-12-17T21:06:52.992Z,102489.47
2022-12-17T21:09:21.189Z,102486.22
2022-12-17T21:11:47.938Z,102483.63
2022-12-17T21:14:16.604Z,102483.22
2022-12-17T21:16:43.580Z,102486.13
2022-12-17T21:19:12.581Z,102488.69
2022-12-17T21:21:39.404Z,102492.00
2022-12-17T21:24:06.628Z,102490.88
2022-12-17T21:26:36.731Z,102501.38
2022-12-17T21:29:04.727Z,102501.47
2022-12-17T21:31:40.657Z,102503.22
2022-12-17T21:34:09.625Z,102507.88
2022-12-17T21:36:36.553Z,102513.28
2022-12-17T21:39:09.356Z,102509.19
2022-12-17T21:41:37.638Z,102518.97
2022-12-17T21:44:06.615Z,102519.88
2022-12-17T21:46:33.149Z,102522.75
2022-12-17T21:49:00.739Z,102527.84
2022-12-17T21:51:28.358Z,102529.19
2022-12-17T21:53:56.289Z,102529.09
2022-12-17T21:56:23.689Z,102527.06
2022-12-17T21:58:50.829Z,102526.41
2022-12-17T22:01:19.843Z,102534.81
2022-12-17T22:03:50.797Z,102534.44
2022-12-17T22:06:21.495Z,102527.22
2022-12-17T22:08:49.530Z,102532.03
2022-12-17T22:11:20.791Z,102530.88
2022-12-17T22:14:10.049Z,102529.03
2022-12-17T22:16:47.380Z,102527.44
2022-12-17T22:19:16.438Z,102531.38
2022-12-17T22:21:44.395Z,102531.41
2022-12-17T22:24:15.277Z,102532.47
2022-12-17T22:26:42.789Z,102536.00
2022-12-17T22:29:09.506Z,102537.72
2022-12-17T22:31:54.557Z,102545.97
2022-12-17T22:35:07.839Z,102537.66
2022-12-17T22:41:36.993Z,102530.78
2022-12-17T22:41:53.417Z,102537.63
2022-12-17T22:44:42.957Z,102539.00
2022-12-17T22:45:46.007Z,102537.63
2022-12-17T22:48:13.589Z,102546.34
2022-12-17T22:50:43.582Z,102537.41
2022-12-17T22:53:27.521Z,102548.31
2022-12-17T22:55:56.558Z,102545.25
2022-12-17T22:58:24.054Z,102536.13
2022-12-17T23:00:51.910Z,102531.22
2022-12-17T23:03:18.552Z,102535.41
2022-12-17T23:05:45.093Z,102535.63
2022-12-17T23:08:12.203Z,102530.97
2022-12-17T23:10:38.622Z,102532.84
2022-12-17T23:13:05.355Z,102534.75
2022-12-17T23:15:38.928Z,102530.47
2022-12-17T23:18:06.673Z,102536.09
2022-12-17T23:20:34.495Z,102526.50
2022-12-17T23:23:01.219Z,102532.56
2022-12-17T23:25:29.370Z,102538.00
2022-12-17T23:27:56.336Z,102536.00
2022-12-17T23:30:23.165Z,102539.13
2022-12-17T23:32:52.194Z,102543.69
2022-12-17T23:35:18.904Z,102544.16
2022-12-17T23:37:45.824Z,102536.25
2022-12-17T23:40:12.901Z,102537.03
2022-12-17T23:42:40.023Z,102539.31
2022-12-17T23:45:07.790Z,102525.69
2022-12-17T23:47:34.288Z,102523.16
2022-12-17T23:50:02.417Z,102513.00
2022-12-17T23:52:30.067Z,102516.56
2022-12-17T23:54:57.062Z,102531.47
2022-12-17T23:57:24.054Z,102528.25
2022-12-17T23:59:50.653Z,102532.88
